createdAt,value
2018-04-08T00:01:47.129Z,13.91
2018-04-08T00:04:50.158Z,14.03
2018-04-08T00:07:52.684Z,14.35
2018-04-08T00:10:55.163Z,14.32
2018-04-08T00:13:57.736Z,14.11
2018-04-08T00:17:00.267Z,14.06
2018-04-08T00:20:02.790Z,14.00
2018-04-08T00:23:05.318Z,13.98
2018-04-08T00:26:07.836Z,13.99
2018-04-08T00:29:10.368Z,14.48
2018-04-08T00:32:12.855Z,14.21
2018-04-08T00:35:15.362Z,14.11
2018-04-08T00:38:17.844Z,14.17
2018-04-08T00:41:20.329Z,14.10
2018-04-08T00:44:22.812Z,14.01
2018-04-08T00:47:25.401Z,13.89
2018-04-08T00:50:27.919Z,13.64
2018-04-08T00:53:30.404Z,13.54
2018-04-08T00:56:32.878Z,13.73
2018-04-08T00:59:35.466Z,13.93
2018-04-08T01:02:37.934Z,13.97
2018-04-08T01:05:40.446Z,13.90
2018-04-08T01:08:42.950Z,13.79
2018-04-08T01:11:45.470Z,13.81
2018-04-08T01:14:47.946Z,13.83
2018-04-08T01:17:50.392Z,13.89
2018-04-08T01:20:52.888Z,13.95
2018-04-08T01:23:55.370Z,13.93
2018-04-08T01:26:57.852Z,13.97
2018-04-08T01:30:00.349Z,14.04
2018-04-08T01:33:02.846Z,13.98
2018-04-08T01:36:05.309Z,14.00
2018-04-08T01:39:07.856Z,14.00
2018-04-08T01:42:10.385Z,14.20
2018-04-08T01:45:12.882Z,14.25
2018-04-08T01:48:15.356Z,14.15
2018-04-08T01:51:17.809Z,14.22
2018-04-08T01:54:20.364Z,14.22
2018-04-08T01:57:22.851Z,14.27
2018-04-08T02:00:25.366Z,14.28
2018-04-08T02:03:27.826Z,14.21
2018-04-08T02:06:30.325Z,14.21
2018-04-08T02:09:32.839Z,14.24
2018-04-08T02:12:35.331Z,14.29
2018-04-08T02:15:37.895Z,14.27
2018-04-08T02:18:40.362Z,14.29
2018-04-08T02:21:42.900Z,14.35
2018-04-08T02:24:45.380Z,14.18
2018-04-08T02:27:47.902Z,14.08
2018-04-08T02:30:50.402Z,14.13
2018-04-08T02:33:52.937Z,14.28
2018-04-08T02:36:55.463Z,14.27
2018-04-08T02:39:57.926Z,14.18
2018-04-08T02:43:00.457Z,14.18
2018-04-08T02:46:03.036Z,14.14
2018-04-08T02:49:05.549Z,14.12
2018-04-08T02:52:08.037Z,14.06
2018-04-08T02:55:10.525Z,14.00
2018-04-08T02:58:13.009Z,13.93
2018-04-08T03:01:15.515Z,13.90
2018-04-08T03:04:18.082Z,13.91
2018-04-08T03:07:20.643Z,13.75
2018-04-08T03:10:23.216Z,14.09
2018-04-08T03:13:25.882Z,13.97
2018-04-08T03:16:28.442Z,13.89
2018-04-08T03:19:31.003Z,14.15
2018-04-08T03:22:33.494Z,14.15
2018-04-08T03:25:36.067Z,13.97
2018-04-08T03:28:38.552Z,13.84
2018-04-08T03:31:41.100Z,13.81
2018-04-08T03:34:43.556Z,13.61
2018-04-08T03:37:46.037Z,13.79
2018-04-08T03:40:48.493Z,13.62
2018-04-08T03:43:51.072Z,13.67
2018-04-08T03:46:53.666Z,13.62
2018-04-08T03:49:56.180Z,13.71
2018-04-08T03:52:58.687Z,13.53
2018-04-08T03:56:01.199Z,13.39
2018-04-08T03:59:03.692Z,13.31
2018-04-08T04:02:06.164Z,13.31
2018-04-08T04:05:08.674Z,13.43
2018-04-08T04:08:11.162Z,13.40
2018-04-08T04:11:13.755Z,13.41
2018-04-08T04:14:16.257Z,13.61
2018-04-08T04:17:18.844Z,13.61
2018-04-08T04:24:28.687Z,13.54
2018-04-08T04:27:31.153Z,13.82
2018-04-08T04:30:33.642Z,13.85
2018-04-08T04:33:36.111Z,13.79
2018-04-08T04:36:38.635Z,13.84
2018-04-08T04:39:41.139Z,13.65
2018-04-08T04:42:43.644Z,13.80
2018-04-08T04:45:46.207Z,13.66
2018-04-08T04:48:48.682Z,13.80
2018-04-08T04:51:51.159Z,13.85
2018-04-08T04:54:53.695Z,13.85
2018-04-08T04:57:56.199Z,13.80
2018-04-08T05:00:59.628Z,14.07
2018-04-08T05:04:02.106Z,14.11
2018-04-08T05:07:04.565Z,14.30
2018-04-08T05:10:07.123Z,14.62
2018-04-08T05:13:09.682Z,14.96
2018-04-08T05:16:12.144Z,15.32
2018-04-08T05:19:14.676Z,16.28
2018-04-08T05:22:17.138Z,16.25
2018-04-08T05:25:19.617Z,17.10
2018-04-08T05:28:22.158Z,17.29
2018-04-08T05:31:25.554Z,17.22
2018-04-08T05:34:28.043Z,17.53
2018-04-08T05:37:31.470Z,17.26
2018-04-08T05:40:33.968Z,16.82
2018-04-08T05:43:36.465Z,17.14
2018-04-08T05:46:39.048Z,17.74
2018-04-08T05:49:42.781Z,18.14
2018-04-08T05:52:45.303Z,17.95
2018-04-08T05:55:48.989Z,17.94
2018-04-08T05:58:51.487Z,17.48
2018-04-08T06:01:54.017Z,17.11
2018-04-08T06:04:56.511Z,17.21
2018-04-08T06:07:58.964Z,16.71
2018-04-08T06:11:01.465Z,16.72
2018-04-08T06:14:03.955Z,16.88
2018-04-08T06:17:06.413Z,17.55
2018-04-08T06:20:08.954Z,17.55
2018-04-08T06:23:11.447Z,17.68
2018-04-08T06:26:13.893Z,18.13
2018-04-08T06:29:16.436Z,18.54
2018-04-08T06:32:18.892Z,18.74
2018-04-08T06:35:22.194Z,18.49
2018-04-08T06:38:24.651Z,19.17
2018-04-08T06:41:27.131Z,20.26
2018-04-08T06:44:29.637Z,19.36
2018-04-08T06:47:32.199Z,18.93
2018-04-08T06:50:34.709Z,18.61
2018-04-08T06:53:37.238Z,17.69
2018-04-08T06:56:39.699Z,17.77
2018-04-08T06:59:42.249Z,17.73
2018-04-08T07:02:44.789Z,18.17
2018-04-08T07:05:47.373Z,18.21
2018-04-08T07:08:49.949Z,18.03
2018-04-08T07:11:52.492Z,17.78
2018-04-08T07:14:55.002Z,17.76
2018-04-08T07:17:57.523Z,17.72
2018-04-08T07:21:00.063Z,17.97
2018-04-08T07:24:02.835Z,18.26
2018-04-08T07:27:05.313Z,17.82
2018-04-08T07:30:08.046Z,18.09
2018-04-08T07:33:10.645Z,18.28
2018-04-08T07:36:13.139Z,18.43
2018-04-08T07:39:15.611Z,18.57
2018-04-08T07:42:18.113Z,18.48
2018-04-08T07:45:20.596Z,18.65
2018-04-08T07:48:23.160Z,18.76
2018-04-08T07:51:25.614Z,18.82
2018-04-08T07:54:28.110Z,18.84
2018-04-08T07:57:30.570Z,18.56
2018-04-08T08:00:33.101Z,18.96
2018-04-08T08:03:35.569Z,18.93
2018-04-08T08:06:38.086Z,18.91
2018-04-08T08:09:40.590Z,18.93
2018-04-08T08:12:43.248Z,19.15
2018-04-08T08:15:45.691Z,19.07
2018-04-08T08:18:48.216Z,18.94
2018-04-08T08:21:50.717Z,19.04
2018-04-08T08:24:53.207Z,19.08
2018-04-08T08:27:55.755Z,19.13
2018-04-08T08:30:58.304Z,19.55
2018-04-08T08:34:00.834Z,19.57
2018-04-08T08:37:03.344Z,19.75
2018-04-08T08:40:05.860Z,19.71
2018-04-08T08:43:08.340Z,20.03
2018-04-08T08:46:10.864Z,20.20
2018-04-08T08:49:13.366Z,19.82
2018-04-08T08:52:15.975Z,19.77
2018-04-08T08:55:18.466Z,20.11
2018-04-08T08:58:21.179Z,20.33
2018-04-08T09:01:23.690Z,20.45
2018-04-08T09:04:26.452Z,20.56
2018-04-08T09:07:29.045Z,20.70
2018-04-08T09:10:31.634Z,21.02
2018-04-08T09:13:34.301Z,20.94
2018-04-08T09:16:36.793Z,21.31
2018-04-08T09:19:48.697Z,21.57
2018-04-08T09:22:54.671Z,21.72
2018-04-08T09:25:59.636Z,21.44
2018-04-08T09:29:02.221Z,21.46
2018-04-08T09:32:04.720Z,21.79
2018-04-08T09:35:07.220Z,21.63
2018-04-08T09:38:09.761Z,21.51
2018-04-08T09:41:12.262Z,21.65
2018-04-08T09:44:14.816Z,21.97
2018-04-08T09:47:17.330Z,22.21
2018-04-08T09:50:19.987Z,22.41
2018-04-08T09:53:22.460Z,22.14
2018-04-08T09:56:24.951Z,22.21
2018-04-08T09:59:27.661Z,22.49
2018-04-08T10:02:36.798Z,22.62
2018-04-08T10:05:39.370Z,22.41
2018-04-08T10:08:41.921Z,22.50
2018-04-08T10:11:44.407Z,22.53
2018-04-08T10:14:46.886Z,22.63
2018-04-08T10:17:49.412Z,22.42
2018-04-08T10:20:51.910Z,22.33
2018-04-08T10:23:54.392Z,22.18
2018-04-08T10:26:56.983Z,22.35
2018-04-08T10:29:59.492Z,22.43
2018-04-08T10:33:01.981Z,22.40
2018-04-08T10:36:04.533Z,22.61
2018-04-08T10:39:07.038Z,22.18
2018-04-08T10:42:10.318Z,22.64
2018-04-08T10:45:12.985Z,22.77
2018-04-08T10:48:15.544Z,22.52
2018-04-08T10:51:18.816Z,22.79
2018-04-08T10:54:21.347Z,23.15
2018-04-08T10:57:23.940Z,23.09
2018-04-08T11:00:26.412Z,23.03
2018-04-08T11:03:28.933Z,23.14
2018-04-08T11:06:32.113Z,23.11
2018-04-08T11:09:34.563Z,23.34
2018-04-08T11:12:37.620Z,23.18
2018-04-08T11:15:40.081Z,23.42
2018-04-08T11:18:43.091Z,23.69
2018-04-08T11:21:45.780Z,23.55
2018-04-08T11:24:48.344Z,23.66
2018-04-08T11:27:50.909Z,23.62
2018-04-08T11:30:53.446Z,23.69
2018-04-08T11:33:55.942Z,23.51
2018-04-08T11:36:58.452Z,23.85
2018-04-08T11:40:00.903Z,23.51
2018-04-08T11:43:03.430Z,23.54
2018-04-08T11:46:05.926Z,23.66
2018-04-08T11:49:08.428Z,23.82
2018-04-08T11:52:10.968Z,23.86
2018-04-08T11:55:13.504Z,23.80
2018-04-08T11:58:15.999Z,23.90
2018-04-08T12:01:18.524Z,24.02
2018-04-08T12:04:21.068Z,23.96
2018-04-08T12:07:23.533Z,24.06
2018-04-08T12:10:26.049Z,24.10
2018-04-08T12:13:28.531Z,23.99
2018-04-08T12:16:31.034Z,23.90
2018-04-08T12:19:33.568Z,24.21
2018-04-08T12:22:36.082Z,24.24
2018-04-08T12:25:38.543Z,24.20
2018-04-08T12:28:41.043Z,24.41
2018-04-08T12:31:43.537Z,24.49
2018-04-08T12:34:46.045Z,24.38
2018-04-08T12:37:48.587Z,24.48
2018-04-08T12:40:51.092Z,24.57
2018-04-08T12:43:53.571Z,24.48
2018-04-08T12:46:56.122Z,24.71
2018-04-08T12:49:58.574Z,24.75
2018-04-08T12:53:01.085Z,24.74
2018-04-08T12:56:03.569Z,24.45
2018-04-08T12:59:06.080Z,24.53
2018-04-08T13:02:08.562Z,24.87
2018-04-08T13:05:11.058Z,24.35
2018-04-08T13:08:13.584Z,24.57
2018-04-08T13:11:16.107Z,24.75
2018-04-08T13:14:19.887Z,24.91
2018-04-08T13:17:22.448Z,25.22
2018-04-08T13:20:24.949Z,24.90
2018-04-08T13:23:27.435Z,25.06
2018-04-08T13:26:29.954Z,25.07
2018-04-08T13:29:32.449Z,25.23
2018-04-08T13:32:35.062Z,25.22
2018-04-08T13:35:37.562Z,25.15
2018-04-08T13:38:40.186Z,24.75
2018-04-08T13:41:42.705Z,24.79
2018-04-08T13:44:45.205Z,25.09
2018-04-08T13:47:47.726Z,25.29
2018-04-08T13:50:50.234Z,25.53
2018-04-08T13:53:52.726Z,25.32
2018-04-08T13:56:55.336Z,24.82
2018-04-08T13:59:57.919Z,24.89
2018-04-08T14:03:00.495Z,25.31
2018-04-08T14:06:03.000Z,25.43
2018-04-08T14:09:06.231Z,25.38
2018-04-08T14:12:08.877Z,24.85
2018-04-08T14:15:11.460Z,24.91
2018-04-08T14:18:14.012Z,24.83
2018-04-08T14:21:16.576Z,25.27
2018-04-08T14:24:19.174Z,25.38
2018-04-08T14:27:21.728Z,25.14
2018-04-08T14:30:24.184Z,25.30
2018-04-08T14:33:26.928Z,25.78
2018-04-08T14:36:29.449Z,26.06
2018-04-08T14:39:32.059Z,25.71
2018-04-08T14:42:34.578Z,26.03
2018-04-08T14:45:37.104Z,25.96
2018-04-08T14:48:39.595Z,25.79
2018-04-08T14:51:42.171Z,25.95
2018-04-08T14:54:44.671Z,25.63
2018-04-08T14:57:47.240Z,25.64
2018-04-08T15:00:49.725Z,25.71
2018-04-08T15:03:52.343Z,25.61
2018-04-08T15:06:54.881Z,25.78
2018-04-08T15:09:57.389Z,25.72
2018-04-08T15:12:59.885Z,25.83
2018-04-08T15:16:02.458Z,25.65
2018-04-08T15:19:04.945Z,25.48
2018-04-08T15:22:07.489Z,25.28
2018-04-08T15:25:10.090Z,25.09
2018-04-08T15:28:12.613Z,24.90
2018-04-08T15:31:15.105Z,24.55
2018-04-08T15:34:17.676Z,24.48
2018-04-08T15:37:20.240Z,24.57
2018-04-08T15:40:22.756Z,24.20
2018-04-08T15:43:25.294Z,24.09
2018-04-08T15:46:27.824Z,23.79
2018-04-08T15:49:30.381Z,23.66
2018-04-08T15:52:32.841Z,23.60
2018-04-08T15:55:35.340Z,23.52
2018-04-08T15:58:37.820Z,23.54
2018-04-08T16:01:40.349Z,23.50
2018-04-08T16:04:42.839Z,23.37
2018-04-08T16:07:45.355Z,23.22
2018-04-08T16:10:47.849Z,23.08
2018-04-08T16:13:50.365Z,22.88
2018-04-08T16:16:52.852Z,22.82
2018-04-08T16:19:55.709Z,22.70
2018-04-08T16:22:58.225Z,22.57
2018-04-08T16:26:00.695Z,22.44
2018-04-08T16:29:03.197Z,22.51
2018-04-08T16:32:05.724Z,22.39
2018-04-08T16:35:08.247Z,22.31
2018-04-08T16:38:10.775Z,22.31
2018-04-08T16:41:13.445Z,22.12
2018-04-08T16:44:17.021Z,22.02
2018-04-08T16:47:19.606Z,21.95
2018-04-08T16:50:22.092Z,21.87
2018-04-08T16:53:24.606Z,21.83
2018-04-08T16:56:27.152Z,21.70
2018-04-08T16:59:29.697Z,21.66
2018-04-08T17:05:41.265Z,21.35
2018-04-08T17:08:43.838Z,21.23
2018-04-08T17:11:46.375Z,21.07
2018-04-08T17:14:48.861Z,21.10
2018-04-08T17:17:51.421Z,21.00
2018-04-08T17:20:54.130Z,20.96
2018-04-08T17:23:56.735Z,20.87
2018-04-08T17:26:59.252Z,20.73
2018-04-08T17:30:01.759Z,20.68
2018-04-08T17:33:04.382Z,20.54
2018-04-08T17:36:06.931Z,20.48
2018-04-08T17:39:09.436Z,20.47
2018-04-08T17:42:11.972Z,20.40
2018-04-08T17:45:14.733Z,20.36
2018-04-08T17:48:17.306Z,20.34
2018-04-08T17:51:19.838Z,20.27
2018-04-08T17:54:22.432Z,20.11
2018-04-08T17:57:24.941Z,20.00
2018-04-08T18:00:27.493Z,19.89
2018-04-08T18:03:29.997Z,19.72
2018-04-08T18:06:32.575Z,19.62
2018-04-08T18:09:35.200Z,19.59
2018-04-08T18:12:37.780Z,19.59
2018-04-08T18:15:41.060Z,19.46
2018-04-08T18:18:43.518Z,19.32
2018-04-08T18:21:46.072Z,19.22
2018-04-08T18:24:48.667Z,19.18
2018-04-08T18:27:51.228Z,19.16
2018-04-08T18:30:53.799Z,19.18
2018-04-08T18:33:56.461Z,19.16
2018-04-08T18:36:58.986Z,19.09
2018-04-08T18:40:01.519Z,19.00
2018-04-08T18:43:04.055Z,18.95
2018-04-08T18:46:06.806Z,18.94
2018-04-08T18:49:09.368Z,18.98
2018-04-08T18:52:11.843Z,18.89
2018-04-08T18:55:14.366Z,18.82
2018-04-08T18:58:16.914Z,18.76
2018-04-08T19:01:19.744Z,18.66
2018-04-08T19:04:22.369Z,18.59
2018-04-08T19:07:24.879Z,18.51
2018-04-08T19:10:28.214Z,18.39
2018-04-08T19:13:30.743Z,18.33
2018-04-08T19:16:33.277Z,18.27
2018-04-08T19:19:36.622Z,18.24
2018-04-08T19:22:39.183Z,18.25
2018-04-08T19:25:41.741Z,18.22
2018-04-08T19:28:44.323Z,18.21
2018-04-08T19:31:47.454Z,18.24
2018-04-08T19:34:49.988Z,18.24
2018-04-08T19:37:52.539Z,18.26
2018-04-08T19:40:55.051Z,18.21
2018-04-08T19:43:57.598Z,18.17
2018-04-08T19:47:00.063Z,18.14
2018-04-08T19:50:02.653Z,18.13
2018-04-08T19:53:05.853Z,18.00
2018-04-08T19:56:08.361Z,17.88
2018-04-08T19:59:10.959Z,17.79
2018-04-08T20:02:14.718Z,17.72
2018-04-08T20:05:17.333Z,17.65
2018-04-08T20:08:19.915Z,17.58
2018-04-08T20:11:22.572Z,17.58
2018-04-08T20:14:25.160Z,17.55
2018-04-08T20:17:27.610Z,17.58
2018-04-08T20:20:30.248Z,17.39
2018-04-08T20:23:32.744Z,17.31
2018-04-08T20:26:35.305Z,17.25
2018-04-08T20:29:37.793Z,17.14
2018-04-08T20:32:40.398Z,17.07
2018-04-08T20:35:42.964Z,16.96
2018-04-08T20:38:45.533Z,16.90
2018-04-08T20:41:48.039Z,16.82
2018-04-08T20:44:52.004Z,16.75
2018-04-08T20:47:54.658Z,16.70
2018-04-08T20:50:57.203Z,16.63
2018-04-08T20:53:59.759Z,16.62
2018-04-08T20:57:02.334Z,16.59
2018-04-08T21:00:04.899Z,16.60
2018-04-08T21:03:07.458Z,16.57
2018-04-08T21:06:09.995Z,16.49
2018-04-08T21:09:12.569Z,16.51
2018-04-08T21:12:15.150Z,16.52
2018-04-08T21:15:17.680Z,16.59
2018-04-08T21:18:20.228Z,16.55
2018-04-08T21:21:22.755Z,16.59
2018-04-08T21:24:25.299Z,16.66
2018-04-08T21:27:27.774Z,16.67
2018-04-08T21:30:30.281Z,16.76
2018-04-08T21:33:32.839Z,16.88
2018-04-08T21:36:35.380Z,16.95
2018-04-08T21:39:37.894Z,17.00
2018-04-08T21:42:40.460Z,17.13
2018-04-08T21:45:43.029Z,17.09
2018-04-08T21:48:45.509Z,16.98
2018-04-08T21:51:48.005Z,17.10
2018-04-08T21:54:50.504Z,16.98
2018-04-08T21:57:52.979Z,17.08
2018-04-08T22:00:55.486Z,17.09
2018-04-08T22:03:58.062Z,16.91
2018-04-08T22:07:00.511Z,16.86
2018-04-08T22:10:03.133Z,16.80
2018-04-08T22:13:05.617Z,16.81
2018-04-08T22:16:08.104Z,16.69
2018-04-08T22:19:10.594Z,16.66
2018-04-08T22:22:13.124Z,16.56
2018-04-08T22:25:15.620Z,16.82
2018-04-08T22:28:19.207Z,16.71
2018-04-08T22:31:21.737Z,16.85
2018-04-08T22:34:24.235Z,16.82
2018-04-08T22:37:26.755Z,16.80
2018-04-08T22:40:30.211Z,16.79
2018-04-08T22:43:32.716Z,16.80
2018-04-08T22:46:35.222Z,16.86
2018-04-08T22:49:37.686Z,16.71
2018-04-08T22:52:40.210Z,16.66
2018-04-08T22:55:43.096Z,16.75
2018-04-08T22:58:45.599Z,16.62
2018-04-08T23:01:48.081Z,16.47
2018-04-08T23:04:50.602Z,16.40
2018-04-08T23:07:53.081Z,16.39
2018-04-08T23:10:55.559Z,16.46
2018-04-08T23:13:58.011Z,16.39
2018-04-08T23:17:00.751Z,16.30
2018-04-08T23:20:03.222Z,16.22
2018-04-08T23:23:05.760Z,16.30
2018-04-08T23:26:08.316Z,16.26
2018-04-08T23:29:10.831Z,16.25
2018-04-08T23:32:13.345Z,16.11
2018-04-08T23:35:15.860Z,16.01
2018-04-08T23:38:18.364Z,16.00
2018-04-08T23:41:20.946Z,16.02
2018-04-08T23:44:23.454Z,15.85
2018-04-08T23:47:25.991Z,15.69
2018-04-08T23:50:28.617Z,15.67
2018-04-08T23:53:31.205Z,15.49
2018-04-08T23:56:33.716Z,15.38
2018-04-08T23:59:36.290Z,15.34
